sensor_id;sensor_type;location;lat;lon;timestamp;P1;durP1;ratioP1;P2;durP2;ratioP2
74044;SDS011;62389;51.412;5.436;2024-02-28T00:00:47;29.48;;;13.95;;
74044;SDS011;62389;51.412;5.436;2024-02-28T00:03:12;33.10;;;14.18;;
74044;SDS011;62389;51.412;5.436;2024-02-28T00:05:38;33.90;;;14.75;;
74044;SDS011;62389;51.412;5.436;2024-02-28T00:08:04;34.08;;;16.42;;
74044;SDS011;62389;51.412;5.436;2024-02-28T00:10:29;35.15;;;15.82;;
74044;SDS011;62389;51.412;5.436;2024-02-28T00:12:54;40.28;;;18.35;;
74044;SDS011;62389;51.412;5.436;2024-02-28T00:15:20;34.90;;;14.90;;
74044;SDS011;62389;51.412;5.436;2024-02-28T00:17:45;39.28;;;18.30;;
74044;SDS011;62389;51.412;5.436;2024-02-28T00:20:10;34.63;;;16.17;;
74044;SDS011;62389;51.412;5.436;2024-02-28T00:22:37;40.28;;;18.80;;
74044;SDS011;62389;51.412;5.436;2024-02-28T00:25:03;37.00;;;17.55;;
74044;SDS011;62389;51.412;5.436;2024-02-28T00:27:31;38.03;;;17.08;;
74044;SDS011;62389;51.412;5.436;2024-02-28T00:29:57;38.15;;;15.68;;
74044;SDS011;62389;51.412;5.436;2024-02-28T00:32:22;37.47;;;15.85;;
74044;SDS011;62389;51.412;5.436;2024-02-28T00:34:48;38.35;;;16.13;;
74044;SDS011;62389;51.412;5.436;2024-02-28T00:37:13;36.15;;;16.40;;
74044;SDS011;62389;51.412;5.436;2024-02-28T00:39:39;38.88;;;15.88;;
74044;SDS011;62389;51.412;5.436;2024-02-28T00:42:04;40.55;;;17.63;;
74044;SDS011;62389;51.412;5.436;2024-02-28T00:44:29;43.70;;;18.45;;
74044;SDS011;62389;51.412;5.436;2024-02-28T00:46:55;41.80;;;17.58;;
74044;SDS011;62389;51.412;5.436;2024-02-28T00:49:21;38.78;;;17.00;;
74044;SDS011;62389;51.412;5.436;2024-02-28T00:51:46;38.00;;;17.75;;
74044;SDS011;62389;51.412;5.436;2024-02-28T00:54:12;32.00;;;16.08;;
74044;SDS011;62389;51.412;5.436;2024-02-28T00:56:37;38.47;;;16.92;;
74044;SDS011;62389;51.412;5.436;2024-02-28T00:59:03;34.13;;;15.80;;
74044;SDS011;62389;51.412;5.436;2024-02-28T01:01:28;35.72;;;15.52;;
74044;SDS011;62389;51.412;5.436;2024-02-28T01:03:53;39.42;;;17.48;;
74044;SDS011;62389;51.412;5.436;2024-02-28T01:06:19;37.65;;;17.27;;
74044;SDS011;62389;51.412;5.436;2024-02-28T01:08:44;36.45;;;15.00;;
74044;SDS011;62389;51.412;5.436;2024-02-28T01:11:10;35.38;;;16.38;;
74044;SDS011;62389;51.412;5.436;2024-02-28T01:13:35;37.17;;;17.30;;
74044;SDS011;62389;51.412;5.436;2024-02-28T01:16:00;36.42;;;16.27;;
74044;SDS011;62389;51.412;5.436;2024-02-28T01:18:26;41.13;;;17.85;;
74044;SDS011;62389;51.412;5.436;2024-02-28T01:20:53;39.78;;;18.48;;
74044;SDS011;62389;51.412;5.436;2024-02-28T01:23:19;38.40;;;17.05;;
74044;SDS011;62389;51.412;5.436;2024-02-28T01:25:44;36.17;;;17.17;;
74044;SDS011;62389;51.412;5.436;2024-02-28T01:28:09;34.60;;;15.65;;
74044;SDS011;62389;51.412;5.436;2024-02-28T01:30:35;33.88;;;15.05;;
74044;SDS011;62389;51.412;5.436;2024-02-28T01:33:00;34.50;;;14.57;;
74044;SDS011;62389;51.412;5.436;2024-02-28T01:35:26;31.25;;;14.98;;
74044;SDS011;62389;51.412;5.436;2024-02-28T01:37:51;32.67;;;15.10;;
74044;SDS011;62389;51.412;5.436;2024-02-28T01:40:16;31.88;;;15.75;;
74044;SDS011;62389;51.412;5.436;2024-02-28T01:42:42;34.25;;;14.77;;
74044;SDS011;62389;51.412;5.436;2024-02-28T01:45:09;32.97;;;14.13;;
74044;SDS011;62389;51.412;5.436;2024-02-28T01:47:38;27.52;;;12.68;;
74044;SDS011;62389;51.412;5.436;2024-02-28T01:50:04;28.83;;;13.98;;
74044;SDS011;62389;51.412;5.436;2024-02-28T01:52:30;33.10;;;13.70;;
74044;SDS011;62389;51.412;5.436;2024-02-28T01:54:56;29.98;;;13.35;;
74044;SDS011;62389;51.412;5.436;2024-02-28T01:57:21;32.20;;;15.30;;
74044;SDS011;62389;51.412;5.436;2024-02-28T01:59:47;30.33;;;14.57;;
74044;SDS011;62389;51.412;5.436;2024-02-28T02:02:13;27.95;;;13.52;;
74044;SDS011;62389;51.412;5.436;2024-02-28T02:04:38;34.70;;;15.77;;
74044;SDS011;62389;51.412;5.436;2024-02-28T02:07:04;33.67;;;14.55;;
74044;SDS011;62389;51.412;5.436;2024-02-28T02:09:32;35.78;;;15.57;;
74044;SDS011;62389;51.412;5.436;2024-02-28T02:11:59;34.95;;;15.68;;
74044;SDS011;62389;51.412;5.436;2024-02-28T02:14:25;28.50;;;14.32;;
74044;SDS011;62389;51.412;5.436;2024-02-28T02:16:50;31.80;;;13.85;;
74044;SDS011;62389;51.412;5.436;2024-02-28T02:19:15;34.92;;;16.00;;
74044;SDS011;62389;51.412;5.436;2024-02-28T02:21:43;28.83;;;14.25;;
74044;SDS011;62389;51.412;5.436;2024-02-28T02:24:15;32.28;;;13.63;;
74044;SDS011;62389;51.412;5.436;2024-02-28T02:26:41;28.45;;;14.07;;
74044;SDS011;62389;51.412;5.436;2024-02-28T02:29:09;33.53;;;15.73;;
74044;SDS011;62389;51.412;5.436;2024-02-28T02:31:34;29.48;;;13.75;;
74044;SDS011;62389;51.412;5.436;2024-02-28T02:33:59;30.88;;;14.68;;
74044;SDS011;62389;51.412;5.436;2024-02-28T02:36:25;30.75;;;14.10;;
74044;SDS011;62389;51.412;5.436;2024-02-28T02:38:50;29.70;;;14.65;;
74044;SDS011;62389;51.412;5.436;2024-02-28T02:41:15;31.45;;;14.38;;
74044;SDS011;62389;51.412;5.436;2024-02-28T02:43:41;30.52;;;12.80;;
74044;SDS011;62389;51.412;5.436;2024-02-28T02:46:06;32.50;;;15.18;;
74044;SDS011;62389;51.412;5.436;2024-02-28T02:48:31;35.25;;;15.13;;
74044;SDS011;62389;51.412;5.436;2024-02-28T02:50:57;27.90;;;13.75;;
74044;SDS011;62389;51.412;5.436;2024-02-28T02:53:23;27.50;;;14.38;;
74044;SDS011;62389;51.412;5.436;2024-02-28T02:55:48;33.50;;;14.77;;
74044;SDS011;62389;51.412;5.436;2024-02-28T02:58:13;30.85;;;14.32;;
74044;SDS011;62389;51.412;5.436;2024-02-28T03:00:39;31.95;;;14.20;;
74044;SDS011;62389;51.412;5.436;2024-02-28T03:03:04;32.53;;;15.07;;
74044;SDS011;62389;51.412;5.436;2024-02-28T03:05:30;31.80;;;14.20;;
74044;SDS011;62389;51.412;5.436;2024-02-28T03:07:56;30.40;;;14.07;;
74044;SDS011;62389;51.412;5.436;2024-02-28T03:10:21;27.70;;;13.63;;
74044;SDS011;62389;51.412;5.436;2024-02-28T03:12:46;29.85;;;14.02;;
74044;SDS011;62389;51.412;5.436;2024-02-28T03:15:12;31.33;;;14.88;;
74044;SDS011;62389;51.412;5.436;2024-02-28T03:17:37;29.77;;;14.90;;
74044;SDS011;62389;51.412;5.436;2024-02-28T03:20:02;33.65;;;14.82;;
74044;SDS011;62389;51.412;5.436;2024-02-28T03:22:28;28.67;;;14.65;;
74044;SDS011;62389;51.412;5.436;2024-02-28T03:24:53;30.65;;;14.55;;
74044;SDS011;62389;51.412;5.436;2024-02-28T03:27:19;27.55;;;13.05;;
74044;SDS011;62389;51.412;5.436;2024-02-28T03:29:44;28.75;;;13.32;;
74044;SDS011;62389;51.412;5.436;2024-02-28T03:32:09;34.45;;;15.60;;
74044;SDS011;62389;51.412;5.436;2024-02-28T03:34:35;28.33;;;12.52;;
74044;SDS011;62389;51.412;5.436;2024-02-28T03:37:00;33.30;;;14.63;;
74044;SDS011;62389;51.412;5.436;2024-02-28T03:39:25;34.50;;;17.73;;
74044;SDS011;62389;51.412;5.436;2024-02-28T03:41:51;27.80;;;13.75;;
74044;SDS011;62389;51.412;5.436;2024-02-28T03:44:16;24.77;;;12.43;;
74044;SDS011;62389;51.412;5.436;2024-02-28T03:46:41;30.88;;;13.38;;
74044;SDS011;62389;51.412;5.436;2024-02-28T03:49:07;26.08;;;12.90;;
74044;SDS011;62389;51.412;5.436;2024-02-28T03:51:38;28.58;;;14.50;;
74044;SDS011;62389;51.412;5.436;2024-02-28T03:54:04;35.80;;;15.43;;
74044;SDS011;62389;51.412;5.436;2024-02-28T03:56:29;27.80;;;14.23;;
74044;SDS011;62389;51.412;5.436;2024-02-28T03:58:55;33.90;;;15.65;;
74044;SDS011;62389;51.412;5.436;2024-02-28T04:01:21;36.30;;;15.55;;
74044;SDS011;62389;51.412;5.436;2024-02-28T04:03:46;35.05;;;15.73;;
74044;SDS011;62389;51.412;5.436;2024-02-28T04:06:11;32.72;;;15.88;;
74044;SDS011;62389;51.412;5.436;2024-02-28T04:08:37;35.28;;;15.27;;
74044;SDS011;62389;51.412;5.436;2024-02-28T04:11:02;34.53;;;14.98;;
74044;SDS011;62389;51.412;5.436;2024-02-28T04:13:28;37.45;;;16.92;;
74044;SDS011;62389;51.412;5.436;2024-02-28T04:15:53;33.58;;;15.77;;
74044;SDS011;62389;51.412;5.436;2024-02-28T04:18:19;38.50;;;16.27;;
74044;SDS011;62389;51.412;5.436;2024-02-28T04:20:44;43.13;;;16.98;;
74044;SDS011;62389;51.412;5.436;2024-02-28T04:23:10;34.92;;;15.48;;
74044;SDS011;62389;51.412;5.436;2024-02-28T04:25:35;40.72;;;15.68;;
74044;SDS011;62389;51.412;5.436;2024-02-28T04:28:01;44.42;;;18.95;;
74044;SDS011;62389;51.412;5.436;2024-02-28T04:30:27;34.47;;;15.75;;
74044;SDS011;62389;51.412;5.436;2024-02-28T04:32:53;38.97;;;16.10;;
74044;SDS011;62389;51.412;5.436;2024-02-28T04:35:18;39.42;;;16.77;;
74044;SDS011;62389;51.412;5.436;2024-02-28T04:37:45;39.58;;;16.73;;
74044;SDS011;62389;51.412;5.436;2024-02-28T04:40:13;44.95;;;15.90;;
74044;SDS011;62389;51.412;5.436;2024-02-28T04:42:39;37.75;;;16.05;;
74044;SDS011;62389;51.412;5.436;2024-02-28T04:45:05;41.08;;;17.30;;
74044;SDS011;62389;51.412;5.436;2024-02-28T04:47:30;40.53;;;17.35;;
74044;SDS011;62389;51.412;5.436;2024-02-28T04:49:56;39.38;;;16.35;;
74044;SDS011;62389;51.412;5.436;2024-02-28T04:52:22;39.72;;;17.63;;
74044;SDS011;62389;51.412;5.436;2024-02-28T04:54:48;40.65;;;16.08;;
74044;SDS011;62389;51.412;5.436;2024-02-28T04:57:13;39.72;;;17.25;;
74044;SDS011;62389;51.412;5.436;2024-02-28T04:59:41;40.38;;;15.65;;
74044;SDS011;62389;51.412;5.436;2024-02-28T05:02:06;38.97;;;16.90;;
74044;SDS011;62389;51.412;5.436;2024-02-28T05:04:32;32.35;;;15.13;;
74044;SDS011;62389;51.412;5.436;2024-02-28T05:06:57;36.80;;;16.92;;
74044;SDS011;62389;51.412;5.436;2024-02-28T05:09:22;40.28;;;16.30;;
74044;SDS011;62389;51.412;5.436;2024-02-28T05:11:48;34.60;;;14.95;;
74044;SDS011;62389;51.412;5.436;2024-02-28T05:14:13;32.92;;;14.70;;
74044;SDS011;62389;51.412;5.436;2024-02-28T05:16:38;39.47;;;15.48;;
74044;SDS011;62389;51.412;5.436;2024-02-28T05:19:04;35.80;;;13.70;;
74044;SDS011;62389;51.412;5.436;2024-02-28T05:21:29;30.13;;;15.05;;
74044;SDS011;62389;51.412;5.436;2024-02-28T05:23:55;35.65;;;15.07;;
74044;SDS011;62389;51.412;5.436;2024-02-28T05:26:20;34.20;;;15.52;;
74044;SDS011;62389;51.412;5.436;2024-02-28T05:28:45;32.15;;;13.88;;
74044;SDS011;62389;51.412;5.436;2024-02-28T05:31:24;36.75;;;15.27;;
74044;SDS011;62389;51.412;5.436;2024-02-28T05:33:55;33.28;;;14.70;;
74044;SDS011;62389;51.412;5.436;2024-02-28T05:36:23;36.47;;;14.75;;
74044;SDS011;62389;51.412;5.436;2024-02-28T05:38:50;33.03;;;14.10;;
74044;SDS011;62389;51.412;5.436;2024-02-28T05:41:16;35.75;;;15.40;;
74044;SDS011;62389;51.412;5.436;2024-02-28T05:43:46;31.38;;;14.98;;
74044;SDS011;62389;51.412;5.436;2024-02-28T05:46:12;32.60;;;15.65;;
74044;SDS011;62389;51.412;5.436;2024-02-28T05:48:45;34.08;;;14.95;;
74044;SDS011;62389;51.412;5.436;2024-02-28T05:51:11;32.78;;;14.50;;
74044;SDS011;62389;51.412;5.436;2024-02-28T05:53:38;28.58;;;14.30;;
74044;SDS011;62389;51.412;5.436;2024-02-28T05:56:06;32.70;;;13.38;;
74044;SDS011;62389;51.412;5.436;2024-02-28T05:58:41;31.13;;;13.35;;
74044;SDS011;62389;51.412;5.436;2024-02-28T06:01:08;33.00;;;15.48;;
74044;SDS011;62389;51.412;5.436;2024-02-28T06:03:36;31.88;;;15.52;;
74044;SDS011;62389;51.412;5.436;2024-02-28T06:06:02;34.53;;;14.80;;
74044;SDS011;62389;51.412;5.436;2024-02-28T06:08:33;30.15;;;14.82;;
74044;SDS011;62389;51.412;5.436;2024-02-28T06:10:59;35.38;;;15.50;;
74044;SDS011;62389;51.412;5.436;2024-02-28T06:13:24;27.92;;;13.73;;
74044;SDS011;62389;51.412;5.436;2024-02-28T06:15:50;31.33;;;14.77;;
74044;SDS011;62389;51.412;5.436;2024-02-28T06:18:15;37.00;;;15.57;;
74044;SDS011;62389;51.412;5.436;2024-02-28T06:20:40;30.95;;;14.25;;
74044;SDS011;62389;51.412;5.436;2024-02-28T06:23:06;35.10;;;15.02;;
74044;SDS011;62389;51.412;5.436;2024-02-28T06:25:32;30.73;;;14.20;;
74044;SDS011;62389;51.412;5.436;2024-02-28T06:27:59;31.08;;;14.25;;
74044;SDS011;62389;51.412;5.436;2024-02-28T06:30:25;32.60;;;14.68;;
74044;SDS011;62389;51.412;5.436;2024-02-28T06:32:50;31.52;;;14.27;;
74044;SDS011;62389;51.412;5.436;2024-02-28T06:35:15;33.88;;;15.15;;
74044;SDS011;62389;51.412;5.436;2024-02-28T06:37:41;32.17;;;14.60;;
74044;SDS011;62389;51.412;5.436;2024-02-28T06:40:08;27.77;;;15.38;;
74044;SDS011;62389;51.412;5.436;2024-02-28T06:42:36;34.28;;;15.70;;
74044;SDS011;62389;51.412;5.436;2024-02-28T06:45:04;32.35;;;16.23;;
74044;SDS011;62389;51.412;5.436;2024-02-28T06:47:30;27.90;;;12.82;;
74044;SDS011;62389;51.412;5.436;2024-02-28T06:49:57;29.95;;;15.23;;
74044;SDS011;62389;51.412;5.436;2024-02-28T06:52:22;32.55;;;15.23;;
74044;SDS011;62389;51.412;5.436;2024-02-28T06:54:48;31.05;;;15.82;;
74044;SDS011;62389;51.412;5.436;2024-02-28T06:57:13;30.23;;;13.35;;
74044;SDS011;62389;51.412;5.436;2024-02-28T06:59:38;28.25;;;13.48;;
74044;SDS011;62389;51.412;5.436;2024-02-28T07:02:04;33.22;;;15.10;;
74044;SDS011;62389;51.412;5.436;2024-02-28T07:04:30;31.35;;;13.95;;
74044;SDS011;62389;51.412;5.436;2024-02-28T07:06:55;34.35;;;14.30;;
74044;SDS011;62389;51.412;5.436;2024-02-28T07:09:20;30.00;;;14.15;;
74044;SDS011;62389;51.412;5.436;2024-02-28T07:11:46;33.15;;;14.93;;
74044;SDS011;62389;51.412;5.436;2024-02-28T07:14:11;37.97;;;14.10;;
74044;SDS011;62389;51.412;5.436;2024-02-28T07:16:37;31.35;;;14.70;;
74044;SDS011;62389;51.412;5.436;2024-02-28T07:19:02;31.90;;;13.57;;
74044;SDS011;62389;51.412;5.436;2024-02-28T07:21:28;34.65;;;15.73;;
74044;SDS011;62389;51.412;5.436;2024-02-28T07:23:54;31.80;;;14.85;;
74044;SDS011;62389;51.412;5.436;2024-02-28T07:26:20;29.77;;;15.10;;
74044;SDS011;62389;51.412;5.436;2024-02-28T07:28:45;30.60;;;14.85;;
74044;SDS011;62389;51.412;5.436;2024-02-28T07:31:15;30.73;;;14.52;;
74044;SDS011;62389;51.412;5.436;2024-02-28T07:33:41;29.35;;;14.07;;
74044;SDS011;62389;51.412;5.436;2024-02-28T07:36:06;29.77;;;14.00;;
74044;SDS011;62389;51.412;5.436;2024-02-28T07:38:32;30.70;;;15.35;;
74044;SDS011;62389;51.412;5.436;2024-02-28T07:40:58;28.08;;;13.52;;
74044;SDS011;62389;51.412;5.436;2024-02-28T07:43:23;29.63;;;15.50;;
74044;SDS011;62389;51.412;5.436;2024-02-28T07:45:49;30.92;;;15.40;;
74044;SDS011;62389;51.412;5.436;2024-02-28T07:48:14;36.28;;;15.23;;
74044;SDS011;62389;51.412;5.436;2024-02-28T07:50:42;29.55;;;13.68;;
74044;SDS011;62389;51.412;5.436;2024-02-28T07:53:08;31.50;;;14.80;;
74044;SDS011;62389;51.412;5.436;2024-02-28T07:55:34;31.90;;;15.00;;
74044;SDS011;62389;51.412;5.436;2024-02-28T07:57:59;34.47;;;15.35;;
74044;SDS011;62389;51.412;5.436;2024-02-28T08:00:24;32.65;;;15.70;;
74044;SDS011;62389;51.412;5.436;2024-02-28T08:02:50;31.98;;;16.30;;
74044;SDS011;62389;51.412;5.436;2024-02-28T08:05:15;31.58;;;14.07;;
74044;SDS011;62389;51.412;5.436;2024-02-28T08:07:41;34.50;;;14.55;;
74044;SDS011;62389;51.412;5.436;2024-02-28T08:10:07;35.38;;;15.07;;
74044;SDS011;62389;51.412;5.436;2024-02-28T08:12:35;30.83;;;15.25;;
74044;SDS011;62389;51.412;5.436;2024-02-28T08:15:00;32.25;;;14.77;;
74044;SDS011;62389;51.412;5.436;2024-02-28T08:17:26;35.40;;;17.63;;
74044;SDS011;62389;51.412;5.436;2024-02-28T08:19:51;31.20;;;14.75;;
74044;SDS011;62389;51.412;5.436;2024-02-28T08:22:16;30.60;;;14.50;;
74044;SDS011;62389;51.412;5.436;2024-02-28T08:24:42;29.55;;;15.23;;
74044;SDS011;62389;51.412;5.436;2024-02-28T08:27:07;30.08;;;15.05;;
74044;SDS011;62389;51.412;5.436;2024-02-28T08:29:32;29.55;;;14.10;;
74044;SDS011;62389;51.412;5.436;2024-02-28T08:32:00;36.50;;;17.52;;
74044;SDS011;62389;51.412;5.436;2024-02-28T08:34:26;29.38;;;13.85;;
74044;SDS011;62389;51.412;5.436;2024-02-28T08:36:51;32.85;;;14.80;;
74044;SDS011;62389;51.412;5.436;2024-02-28T08:39:17;29.65;;;14.52;;
74044;SDS011;62389;51.412;5.436;2024-02-28T08:41:42;32.45;;;14.70;;
74044;SDS011;62389;51.412;5.436;2024-02-28T08:44:08;28.70;;;14.05;;
74044;SDS011;62389;51.412;5.436;2024-02-28T08:46:33;30.30;;;14.63;;
74044;SDS011;62389;51.412;5.436;2024-02-28T08:48:58;30.23;;;15.15;;
74044;SDS011;62389;51.412;5.436;2024-02-28T08:51:24;31.98;;;15.10;;
74044;SDS011;62389;51.412;5.436;2024-02-28T08:53:49;26.75;;;14.40;;
74044;SDS011;62389;51.412;5.436;2024-02-28T08:58:42;30.23;;;14.70;;
74044;SDS011;62389;51.412;5.436;2024-02-28T09:01:12;28.95;;;14.40;;
74044;SDS011;62389;51.412;5.436;2024-02-28T09:03:38;29.38;;;13.95;;
74044;SDS011;62389;51.412;5.436;2024-02-28T09:06:04;29.75;;;15.15;;
74044;SDS011;62389;51.412;5.436;2024-02-28T09:08:29;30.10;;;14.90;;
74044;SDS011;62389;51.412;5.436;2024-02-28T09:10:54;31.02;;;14.23;;
74044;SDS011;62389;51.412;5.436;2024-02-28T09:13:20;28.65;;;14.00;;
74044;SDS011;62389;51.412;5.436;2024-02-28T09:15:45;27.88;;;13.02;;
74044;SDS011;62389;51.412;5.436;2024-02-28T09:18:10;30.83;;;14.88;;
74044;SDS011;62389;51.412;5.436;2024-02-28T09:20:36;33.90;;;14.63;;
74044;SDS011;62389;51.412;5.436;2024-02-28T09:23:01;31.48;;;13.80;;
74044;SDS011;62389;51.412;5.436;2024-02-28T09:25:26;32.05;;;13.68;;
74044;SDS011;62389;51.412;5.436;2024-02-28T09:27:52;27.80;;;14.82;;
74044;SDS011;62389;51.412;5.436;2024-02-28T09:30:17;26.58;;;12.45;;
74044;SDS011;62389;51.412;5.436;2024-02-28T09:32:43;27.02;;;13.25;;
74044;SDS011;62389;51.412;5.436;2024-02-28T09:35:08;25.40;;;13.27;;
74044;SDS011;62389;51.412;5.436;2024-02-28T09:37:36;26.83;;;12.65;;
74044;SDS011;62389;51.412;5.436;2024-02-28T09:40:02;23.48;;;11.98;;
74044;SDS011;62389;51.412;5.436;2024-02-28T09:42:30;23.52;;;10.57;;
74044;SDS011;62389;51.412;5.436;2024-02-28T09:44:56;25.13;;;12.10;;
74044;SDS011;62389;51.412;5.436;2024-02-28T09:47:26;23.50;;;10.70;;
74044;SDS011;62389;51.412;5.436;2024-02-28T09:49:51;24.38;;;11.77;;
74044;SDS011;62389;51.412;5.436;2024-02-28T09:52:18;21.58;;;10.48;;
74044;SDS011;62389;51.412;5.436;2024-02-28T09:54:45;29.88;;;11.43;;
74044;SDS011;62389;51.412;5.436;2024-02-28T09:57:11;24.65;;;11.55;;
74044;SDS011;62389;51.412;5.436;2024-02-28T09:59:36;21.40;;;11.18;;
74044;SDS011;62389;51.412;5.436;2024-02-28T10:02:04;24.20;;;11.45;;
74044;SDS011;62389;51.412;5.436;2024-02-28T10:04:31;24.95;;;12.18;;
74044;SDS011;62389;51.412;5.436;2024-02-28T10:06:59;27.00;;;11.40;;
74044;SDS011;62389;51.412;5.436;2024-02-28T10:12:03;19.43;;;10.83;;
74044;SDS011;62389;51.412;5.436;2024-02-28T10:14:28;25.27;;;11.00;;
74044;SDS011;62389;51.412;5.436;2024-02-28T10:16:54;25.77;;;11.55;;
74044;SDS011;62389;51.412;5.436;2024-02-28T10:19:20;29.30;;;12.70;;
74044;SDS011;62389;51.412;5.436;2024-02-28T10:21:46;25.23;;;11.80;;
74044;SDS011;62389;51.412;5.436;2024-02-28T10:24:12;24.88;;;11.75;;
74044;SDS011;62389;51.412;5.436;2024-02-28T10:26:44;28.67;;;12.25;;
74044;SDS011;62389;51.412;5.436;2024-02-28T10:29:10;25.60;;;12.07;;
74044;SDS011;62389;51.412;5.436;2024-02-28T10:31:36;26.15;;;11.50;;
74044;SDS011;62389;51.412;5.436;2024-02-28T10:34:01;25.15;;;11.70;;
74044;SDS011;62389;51.412;5.436;2024-02-28T10:38:56;25.02;;;12.18;;
74044;SDS011;62389;51.412;5.436;2024-02-28T10:41:22;26.52;;;12.60;;
74044;SDS011;62389;51.412;5.436;2024-02-28T10:43:48;27.35;;;13.32;;
74044;SDS011;62389;51.412;5.436;2024-02-28T10:46:14;27.75;;;12.32;;
74044;SDS011;62389;51.412;5.436;2024-02-28T10:48:41;25.58;;;12.60;;
74044;SDS011;62389;51.412;5.436;2024-02-28T10:51:06;27.02;;;13.07;;
74044;SDS011;62389;51.412;5.436;2024-02-28T10:56:06;26.85;;;11.68;;
74044;SDS011;62389;51.412;5.436;2024-02-28T10:58:36;23.20;;;11.20;;
74044;SDS011;62389;51.412;5.436;2024-02-28T11:01:15;24.38;;;12.82;;
74044;SDS011;62389;51.412;5.436;2024-02-28T11:03:41;26.80;;;12.30;;
74044;SDS011;62389;51.412;5.436;2024-02-28T11:06:16;23.42;;;10.95;;
74044;SDS011;62389;51.412;5.436;2024-02-28T11:08:45;26.02;;;12.45;;
74044;SDS011;62389;51.412;5.436;2024-02-28T11:11:13;26.92;;;11.23;;
74044;SDS011;62389;51.412;5.436;2024-02-28T11:13:41;22.23;;;11.43;;
74044;SDS011;62389;51.412;5.436;2024-02-28T11:16:17;25.23;;;11.80;;
74044;SDS011;62389;51.412;5.436;2024-02-28T11:18:50;25.98;;;11.82;;
74044;SDS011;62389;51.412;5.436;2024-02-28T11:21:15;24.60;;;12.20;;
74044;SDS011;62389;51.412;5.436;2024-02-28T11:23:41;24.52;;;12.75;;
74044;SDS011;62389;51.412;5.436;2024-02-28T11:26:12;24.83;;;11.77;;
74044;SDS011;62389;51.412;5.436;2024-02-28T11:28:38;20.50;;;10.60;;
74044;SDS011;62389;51.412;5.436;2024-02-28T11:31:04;22.85;;;12.07;;
74044;SDS011;62389;51.412;5.436;2024-02-28T11:33:30;20.80;;;10.90;;
74044;SDS011;62389;51.412;5.436;2024-02-28T11:35:56;20.20;;;9.55;;
74044;SDS011;62389;51.412;5.436;2024-02-28T11:38:24;21.83;;;9.07;;
74044;SDS011;62389;51.412;5.436;2024-02-28T11:40:50;18.90;;;9.02;;
74044;SDS011;62389;51.412;5.436;2024-02-28T11:43:15;18.63;;;8.60;;
74044;SDS011;62389;51.412;5.436;2024-02-28T11:45:42;21.20;;;10.20;;
74044;SDS011;62389;51.412;5.436;2024-02-28T11:48:08;21.13;;;10.02;;
74044;SDS011;62389;51.412;5.436;2024-02-28T11:50:34;19.20;;;9.98;;
74044;SDS011;62389;51.412;5.436;2024-02-28T11:52:59;20.77;;;8.73;;
74044;SDS011;62389;51.412;5.436;2024-02-28T11:55:27;24.13;;;10.65;;
74044;SDS011;62389;51.412;5.436;2024-02-28T11:57:52;22.67;;;10.00;;
74044;SDS011;62389;51.412;5.436;2024-02-28T12:00:18;19.35;;;10.07;;
74044;SDS011;62389;51.412;5.436;2024-02-28T12:02:43;18.63;;;8.85;;
74044;SDS011;62389;51.412;5.436;2024-02-28T12:05:09;17.60;;;9.07;;
74044;SDS011;62389;51.412;5.436;2024-02-28T12:07:34;19.08;;;8.48;;
74044;SDS011;62389;51.412;5.436;2024-02-28T12:10:00;22.50;;;8.93;;
74044;SDS011;62389;51.412;5.436;2024-02-28T12:12:28;18.90;;;8.73;;
74044;SDS011;62389;51.412;5.436;2024-02-28T12:14:57;21.92;;;8.30;;
74044;SDS011;62389;51.412;5.436;2024-02-28T12:17:26;19.92;;;9.15;;
74044;SDS011;62389;51.412;5.436;2024-02-28T12:19:52;17.95;;;8.27;;
74044;SDS011;62389;51.412;5.436;2024-02-28T12:22:17;20.92;;;8.88;;
74044;SDS011;62389;51.412;5.436;2024-02-28T12:24:43;19.40;;;9.07;;
74044;SDS011;62389;51.412;5.436;2024-02-28T12:27:08;22.02;;;9.00;;
74044;SDS011;62389;51.412;5.436;2024-02-28T12:29:34;16.70;;;8.00;;
74044;SDS011;62389;51.412;5.436;2024-02-28T12:31:59;19.73;;;9.32;;
74044;SDS011;62389;51.412;5.436;2024-02-28T12:34:25;20.85;;;9.20;;
74044;SDS011;62389;51.412;5.436;2024-02-28T12:36:51;17.75;;;8.27;;
74044;SDS011;62389;51.412;5.436;2024-02-28T12:39:17;22.85;;;9.68;;
74044;SDS011;62389;51.412;5.436;2024-02-28T12:41:42;17.98;;;7.82;;
74044;SDS011;62389;51.412;5.436;2024-02-28T12:44:08;18.48;;;9.55;;
74044;SDS011;62389;51.412;5.436;2024-02-28T12:46:34;19.67;;;9.60;;
74044;SDS011;62389;51.412;5.436;2024-02-28T12:49:00;18.35;;;8.80;;
74044;SDS011;62389;51.412;5.436;2024-02-28T12:54:08;17.20;;;8.98;;
74044;SDS011;62389;51.412;5.436;2024-02-28T12:56:37;19.30;;;9.45;;
74044;SDS011;62389;51.412;5.436;2024-02-28T12:59:03;19.77;;;8.27;;
74044;SDS011;62389;51.412;5.436;2024-02-28T13:03:56;17.75;;;8.63;;
74044;SDS011;62389;51.412;5.436;2024-02-28T13:06:21;19.38;;;8.30;;
74044;SDS011;62389;51.412;5.436;2024-02-28T13:08:47;17.73;;;8.55;;
74044;SDS011;62389;51.412;5.436;2024-02-28T13:11:19;16.45;;;8.48;;
74044;SDS011;62389;51.412;5.436;2024-02-28T13:13:49;18.65;;;8.38;;
74044;SDS011;62389;51.412;5.436;2024-02-28T13:16:16;18.30;;;7.32;;
74044;SDS011;62389;51.412;5.436;2024-02-28T13:18:42;16.75;;;8.40;;
74044;SDS011;62389;51.412;5.436;2024-02-28T13:21:08;13.57;;;6.85;;
74044;SDS011;62389;51.412;5.436;2024-02-28T13:23:34;12.95;;;6.53;;
74044;SDS011;62389;51.412;5.436;2024-02-28T13:26:00;16.48;;;7.30;;
74044;SDS011;62389;51.412;5.436;2024-02-28T13:28:26;20.52;;;7.28;;
74044;SDS011;62389;51.412;5.436;2024-02-28T13:30:58;14.05;;;6.10;;
74044;SDS011;62389;51.412;5.436;2024-02-28T13:33:25;12.68;;;7.15;;
74044;SDS011;62389;51.412;5.436;2024-02-28T13:35:51;13.27;;;6.45;;
74044;SDS011;62389;51.412;5.436;2024-02-28T13:38:18;14.68;;;6.57;;
74044;SDS011;62389;51.412;5.436;2024-02-28T13:40:44;14.23;;;7.35;;
74044;SDS011;62389;51.412;5.436;2024-02-28T13:43:13;14.82;;;6.78;;
74044;SDS011;62389;51.412;5.436;2024-02-28T13:45:39;12.15;;;6.55;;
74044;SDS011;62389;51.412;5.436;2024-02-28T13:48:14;13.05;;;6.88;;
74044;SDS011;62389;51.412;5.436;2024-02-28T13:50:42;13.35;;;7.32;;
74044;SDS011;62389;51.412;5.436;2024-02-28T13:53:08;16.23;;;7.20;;
74044;SDS011;62389;51.412;5.436;2024-02-28T13:55:33;14.73;;;7.15;;
74044;SDS011;62389;51.412;5.436;2024-02-28T13:57:59;16.67;;;7.40;;
74044;SDS011;62389;51.412;5.436;2024-02-28T14:00:24;14.27;;;8.00;;
74044;SDS011;62389;51.412;5.436;2024-02-28T14:02:49;16.35;;;8.85;;
74044;SDS011;62389;51.412;5.436;2024-02-28T14:05:15;17.17;;;8.43;;
74044;SDS011;62389;51.412;5.436;2024-02-28T14:07:40;15.18;;;7.82;;
74044;SDS011;62389;51.412;5.436;2024-02-28T14:10:06;12.50;;;7.28;;
74044;SDS011;62389;51.412;5.436;2024-02-28T14:12:32;14.75;;;7.78;;
74044;SDS011;62389;51.412;5.436;2024-02-28T14:14:57;17.27;;;7.95;;
74044;SDS011;62389;51.412;5.436;2024-02-28T14:17:22;14.30;;;7.95;;
74044;SDS011;62389;51.412;5.436;2024-02-28T14:19:48;15.50;;;8.43;;
74044;SDS011;62389;51.412;5.436;2024-02-28T14:22:13;15.85;;;8.25;;
74044;SDS011;62389;51.412;5.436;2024-02-28T14:24:39;15.25;;;8.13;;
74044;SDS011;62389;51.412;5.436;2024-02-28T14:27:05;15.10;;;7.43;;
74044;SDS011;62389;51.412;5.436;2024-02-28T14:29:30;15.45;;;7.00;;
74044;SDS011;62389;51.412;5.436;2024-02-28T14:31:56;15.02;;;7.82;;